createdAt,value
2023-04-22T00:01:17.370Z,15.31
2023-04-22T00:03:45.005Z,15.27
2023-04-22T00:06:12.212Z,15.23
2023-04-22T00:08:38.951Z,15.23
2023-04-22T00:11:06.670Z,15.21
2023-04-22T00:13:33.546Z,15.11
2023-04-22T00:16:00.716Z,15.12
2023-04-22T00:18:27.568Z,15.06
2023-04-22T00:20:54.648Z,15.02
2023-04-22T00:23:21.417Z,14.98
2023-04-22T00:25:48.498Z,14.96
2023-04-22T00:28:15.284Z,14.96
2023-04-22T00:30:42.367Z,14.93
2023-04-22T00:33:09.173Z,14.89
2023-04-22T00:35:36.361Z,14.84
2023-04-22T00:38:03.114Z,14.82
2023-04-22T00:40:30.238Z,14.79
2023-04-22T00:42:56.968Z,14.73
2023-04-22T00:45:23.980Z,14.71
2023-04-22T00:47:51.033Z,14.75
2023-04-22T00:50:18.162Z,14.70
2023-04-22T00:52:44.941Z,14.64
2023-04-22T00:55:12.052Z,14.57
2023-04-22T00:57:38.767Z,14.53
2023-04-22T01:00:09.888Z,14.52
2023-04-22T01:02:38.502Z,14.52
2023-04-22T01:05:06.364Z,14.45
2023-04-22T01:07:33.252Z,14.45
2023-04-22T01:10:00.682Z,14.41
2023-04-22T01:12:27.493Z,14.42
2023-04-22T01:14:54.498Z,14.33
2023-04-22T01:17:22.069Z,14.34
2023-04-22T01:19:49.328Z,14.27
2023-04-22T01:22:16.105Z,14.27
2023-04-22T01:24:43.146Z,14.22
2023-04-22T01:27:09.911Z,14.19
2023-04-22T01:29:38.176Z,14.13
2023-04-22T01:32:05.634Z,14.10
2023-04-22T01:34:32.850Z,14.01
2023-04-22T01:36:59.622Z,13.99
2023-04-22T01:39:26.826Z,13.97
2023-04-22T01:41:53.812Z,13.92
2023-04-22T01:44:20.879Z,13.91
2023-04-22T01:46:47.674Z,13.89
2023-04-22T01:49:14.720Z,13.92
2023-04-22T01:51:41.559Z,13.87
2023-04-22T01:54:09.171Z,13.86
2023-04-22T01:56:36.572Z,13.80
2023-04-22T01:59:03.698Z,13.83
2023-04-22T02:01:30.500Z,13.76
2023-04-22T02:03:57.543Z,13.73
2023-04-22T02:06:24.329Z,13.71
2023-04-22T02:08:51.362Z,13.65
2023-04-22T02:11:18.098Z,13.64
2023-04-22T02:13:45.184Z,13.62
2023-04-22T02:16:12.036Z,13.62
2023-04-22T02:18:39.129Z,13.58
2023-04-22T02:21:05.931Z,13.47
2023-04-22T02:23:33.198Z,13.49
2023-04-22T02:25:59.960Z,13.43
2023-04-22T02:28:27.136Z,13.46
2023-04-22T02:30:53.911Z,13.35
2023-04-22T02:33:21.013Z,13.35
2023-04-22T02:35:47.843Z,13.34
2023-04-22T02:38:14.946Z,13.34
2023-04-22T02:40:41.668Z,13.30
2023-04-22T02:43:08.801Z,13.28
2023-04-22T02:45:35.977Z,13.26
2023-04-22T02:48:03.119Z,13.26
2023-04-22T02:50:29.922Z,13.24
2023-04-22T02:52:57.103Z,13.20
2023-04-22T02:55:24.858Z,13.10
2023-04-22T02:57:51.894Z,13.09
2023-04-22T03:00:18.701Z,13.06
2023-04-22T03:02:45.895Z,13.04
2023-04-22T03:05:12.839Z,13.00
2023-04-22T03:07:39.947Z,12.98
2023-04-22T03:10:07.834Z,12.95
2023-04-22T03:12:34.924Z,12.93
2023-04-22T03:15:01.820Z,12.90
2023-04-22T03:17:28.863Z,12.91
2023-04-22T03:19:55.901Z,12.93
2023-04-22T03:22:22.966Z,12.85
2023-04-22T03:24:49.730Z,12.81
2023-04-22T03:27:16.776Z,12.81
2023-04-22T03:29:43.588Z,12.76
2023-04-22T03:32:11.089Z,12.75
2023-04-22T03:34:37.884Z,12.70
2023-04-22T03:37:04.907Z,12.61
2023-04-22T03:39:31.755Z,12.60
2023-04-22T03:41:58.816Z,12.57
2023-04-22T03:44:25.569Z,12.54
2023-04-22T03:46:52.625Z,12.59
2023-04-22T03:49:19.872Z,12.50
2023-04-22T03:51:46.913Z,12.46
2023-04-22T03:54:13.720Z,12.41
2023-04-22T03:56:41.126Z,12.46
2023-04-22T03:59:07.871Z,12.46
2023-04-22T04:01:36.194Z,12.42
2023-04-22T04:04:03.104Z,12.39
2023-04-22T04:06:30.350Z,12.33
2023-04-22T04:08:57.193Z,12.32
2023-04-22T04:11:24.253Z,12.33
2023-04-22T04:13:51.131Z,12.32
2023-04-22T04:16:18.318Z,12.33
2023-04-22T04:18:45.092Z,12.29
2023-04-22T04:21:12.142Z,12.28
2023-04-22T04:23:38.945Z,12.34
2023-04-22T04:26:06.008Z,12.32
2023-04-22T04:28:34.377Z,12.30
2023-04-22T04:31:02.873Z,12.29
2023-04-22T04:33:31.897Z,12.30
2023-04-22T04:35:59.408Z,12.32
2023-04-22T04:38:26.679Z,12.31
2023-04-22T04:40:53.874Z,12.32
2023-04-22T04:43:21.280Z,12.33
2023-04-22T04:45:49.040Z,12.35
2023-04-22T04:48:16.698Z,12.36
2023-04-22T04:50:44.070Z,12.36
2023-04-22T04:53:11.296Z,12.36
2023-04-22T04:55:38.672Z,12.38
2023-04-22T04:58:05.465Z,12.39
2023-04-22T05:00:32.470Z,12.38
2023-04-22T05:02:59.314Z,12.41
2023-04-22T05:05:26.579Z,12.47
2023-04-22T05:07:53.899Z,12.51
2023-04-22T05:10:21.513Z,12.47
2023-04-22T05:12:48.452Z,12.57
2023-04-22T05:15:15.565Z,12.56
2023-04-22T05:17:42.403Z,12.55
2023-04-22T05:20:09.981Z,12.69
2023-04-22T05:22:37.266Z,12.64
2023-04-22T05:25:04.785Z,12.65
2023-04-22T05:27:31.733Z,12.68
2023-04-22T05:29:58.921Z,12.74
2023-04-22T05:32:25.825Z,12.78
2023-04-22T05:34:53.067Z,12.78
2023-04-22T05:37:20.001Z,12.85
2023-04-22T05:39:47.113Z,12.92
2023-04-22T05:42:13.865Z,12.93
2023-04-22T05:44:41.076Z,13.01
2023-04-22T05:47:07.879Z,13.05
2023-04-22T05:49:35.001Z,13.09
2023-04-22T05:52:01.816Z,13.17
2023-04-22T05:54:29.463Z,13.24
2023-04-22T05:56:56.859Z,13.30
2023-04-22T05:59:24.029Z,13.35
2023-04-22T06:01:51.163Z,13.44
2023-04-22T06:04:18.977Z,13.52
2023-04-22T06:06:45.952Z,13.60
2023-04-22T06:09:13.025Z,13.65
2023-04-22T06:11:40.476Z,13.68
2023-04-22T06:14:07.541Z,13.72
2023-04-22T06:16:34.362Z,13.78
2023-04-22T06:19:01.535Z,13.83
2023-04-22T06:21:28.631Z,13.92
2023-04-22T06:23:56.282Z,13.91
2023-04-22T06:26:23.040Z,13.99
2023-04-22T06:28:50.258Z,14.07
2023-04-22T06:31:18.817Z,14.15
2023-04-22T06:33:46.797Z,14.21
2023-04-22T06:36:13.876Z,14.29
2023-04-22T06:38:40.933Z,14.33
2023-04-22T06:41:07.734Z,14.39
2023-04-22T06:43:34.777Z,14.46
2023-04-22T06:46:01.550Z,14.56
2023-04-22T06:48:28.634Z,14.65
2023-04-22T06:50:55.410Z,14.70
2023-04-22T06:53:22.499Z,14.77
2023-04-22T06:55:50.249Z,14.86
2023-04-22T06:58:17.357Z,14.94
2023-04-22T07:00:44.253Z,15.05
2023-04-22T07:03:11.656Z,15.11
2023-04-22T07:05:39.774Z,15.19
2023-04-22T07:08:06.996Z,15.26
2023-04-22T07:10:33.832Z,15.36
2023-04-22T07:13:01.010Z,15.46
2023-04-22T07:15:27.807Z,15.52
2023-04-22T07:17:55.063Z,15.56
2023-04-22T07:20:23.141Z,15.68
2023-04-22T07:22:51.228Z,15.79
2023-04-22T07:25:18.087Z,15.92
2023-04-22T07:27:45.309Z,16.01
2023-04-22T07:30:13.513Z,16.03
2023-04-22T07:32:40.717Z,16.37
2023-04-22T07:35:08.008Z,16.40
2023-04-22T07:37:35.080Z,16.44
2023-04-22T07:40:02.052Z,16.53
2023-04-22T07:42:29.179Z,16.56
2023-04-22T07:44:55.959Z,16.67
2023-04-22T07:47:23.245Z,16.80
2023-04-22T07:49:50.058Z,16.86
2023-04-22T07:52:17.130Z,16.95
2023-04-22T07:54:43.898Z,17.06
2023-04-22T07:57:11.050Z,17.15
2023-04-22T07:59:38.003Z,17.24
2023-04-22T08:02:05.198Z,17.33
2023-04-22T08:04:32.102Z,17.41
2023-04-22T08:06:59.717Z,17.49
2023-04-22T08:09:27.461Z,17.58
2023-04-22T08:11:54.570Z,17.68
2023-04-22T08:14:21.537Z,17.80
2023-04-22T08:16:48.608Z,17.88
2023-04-22T08:19:15.355Z,17.93
2023-04-22T08:21:42.820Z,18.01
2023-04-22T08:24:09.544Z,18.18
2023-04-22T08:26:37.512Z,18.24
2023-04-22T08:29:04.710Z,18.34
2023-04-22T08:31:32.033Z,18.43
2023-04-22T08:33:58.893Z,18.47
2023-04-22T08:36:27.728Z,18.59
2023-04-22T08:38:57.513Z,18.70
2023-04-22T08:41:24.740Z,18.81
2023-04-22T08:43:52.372Z,18.91
2023-04-22T08:46:24.182Z,19.00
2023-04-22T08:48:51.120Z,19.08
2023-04-22T08:51:18.279Z,19.16
2023-04-22T08:53:45.123Z,19.26
2023-04-22T08:56:15.520Z,19.37
2023-04-22T08:58:42.316Z,19.46
2023-04-22T09:01:09.618Z,19.60
2023-04-22T09:03:37.419Z,19.71
2023-04-22T09:06:04.909Z,19.73
2023-04-22T09:08:32.527Z,19.82
2023-04-22T09:10:59.784Z,19.95
2023-04-22T09:13:26.694Z,20.06
2023-04-22T09:15:53.845Z,20.10
2023-04-22T09:18:20.872Z,20.21
2023-04-22T09:20:49.147Z,20.29
2023-04-22T09:23:16.022Z,20.46
2023-04-22T09:25:43.064Z,20.57
2023-04-22T09:28:15.132Z,20.69
2023-04-22T09:30:42.294Z,20.71
2023-04-22T09:33:09.550Z,20.80
2023-04-22T09:35:37.995Z,20.84
2023-04-22T09:38:07.890Z,20.91
2023-04-22T09:40:35.697Z,21.01
2023-04-22T09:43:04.381Z,21.11
2023-04-22T09:45:42.183Z,21.24
2023-04-22T09:48:13.138Z,21.26
2023-04-22T09:50:44.319Z,21.30
2023-04-22T09:53:13.731Z,21.43
2023-04-22T09:55:45.776Z,21.50
2023-04-22T09:58:13.817Z,21.59
2023-04-22T10:01:01.145Z,21.75
2023-04-22T10:03:28.014Z,21.82
2023-04-22T10:05:55.238Z,21.92
2023-04-22T10:08:21.995Z,22.03
2023-04-22T10:10:49.079Z,22.15
2023-04-22T10:13:15.861Z,22.18
2023-04-22T10:15:52.057Z,22.27
2023-04-22T10:18:23.327Z,22.30
2023-04-22T10:20:50.893Z,22.35
2023-04-22T10:23:21.978Z,22.42
2023-04-22T10:25:55.215Z,22.53
2023-04-22T10:28:23.349Z,22.69
2023-04-22T10:30:50.978Z,22.70
2023-04-22T10:33:21.042Z,22.80
2023-04-22T10:36:11.025Z,22.81
2023-04-22T10:39:03.785Z,22.93
2023-04-22T10:41:34.848Z,22.98
2023-04-22T10:44:07.844Z,23.04
2023-04-22T10:46:37.163Z,23.08
2023-04-22T10:49:07.834Z,23.11
2023-04-22T10:52:09.386Z,23.18
2023-04-22T10:54:39.267Z,23.27
2023-04-22T10:57:08.105Z,23.33
2023-04-22T11:00:02.979Z,23.51
2023-04-22T11:02:30.338Z,23.51
2023-04-22T11:05:27.035Z,23.62
2023-04-22T11:07:55.934Z,23.83
2023-04-22T11:10:55.940Z,23.85
2023-04-22T11:13:23.132Z,24.01
2023-04-22T11:15:51.687Z,24.14
2023-04-22T11:18:23.736Z,24.20
2023-04-22T11:20:51.081Z,24.33
2023-04-22T11:23:26.621Z,24.44
2023-04-22T11:25:56.551Z,24.47
2023-04-22T11:28:23.834Z,24.50
2023-04-22T11:30:51.339Z,24.57
2023-04-22T11:33:19.099Z,24.62
2023-04-22T11:35:45.991Z,24.65
2023-04-22T11:38:13.268Z,24.65
2023-04-22T11:40:44.843Z,24.75
2023-04-22T11:43:13.600Z,24.80
2023-04-22T11:45:40.577Z,24.78
2023-04-22T11:48:09.364Z,24.84
2023-04-22T11:50:37.897Z,24.90
2023-04-22T11:53:21.037Z,24.97
2023-04-22T11:55:52.983Z,24.97
2023-04-22T11:58:21.047Z,25.05
2023-04-22T12:00:49.471Z,25.09
2023-04-22T12:03:21.011Z,25.11
2023-04-22T12:06:06.441Z,25.16
2023-04-22T12:08:39.877Z,25.22
2023-04-22T12:11:07.584Z,25.26
2023-04-22T12:13:41.965Z,25.35
2023-04-22T12:16:18.678Z,25.44
2023-04-22T12:18:55.639Z,25.50
2023-04-22T12:21:24.679Z,25.51
2023-04-22T12:23:55.437Z,25.53
2023-04-22T12:26:26.634Z,25.56
2023-04-22T12:28:55.110Z,25.59
2023-04-22T12:31:22.100Z,25.59
2023-04-22T12:33:49.516Z,25.65
2023-04-22T12:36:17.670Z,25.69
2023-04-22T12:38:44.803Z,25.74
2023-04-22T12:41:11.679Z,25.80
2023-04-22T12:43:39.509Z,25.79
2023-04-22T12:46:07.118Z,25.82
2023-04-22T12:48:34.369Z,25.90
2023-04-22T12:51:01.193Z,25.94
2023-04-22T12:53:28.523Z,26.01
2023-04-22T12:55:55.919Z,26.06
2023-04-22T12:58:23.474Z,26.12
2023-04-22T13:00:50.334Z,26.13
2023-04-22T13:03:17.631Z,26.13
2023-04-22T13:05:45.772Z,26.21
2023-04-22T13:08:12.896Z,26.22
2023-04-22T13:10:39.788Z,26.26
2023-04-22T13:15:39.021Z,26.32
2023-04-22T13:18:06.527Z,26.35
2023-04-22T13:20:33.604Z,26.35
2023-04-22T13:23:02.224Z,26.39
2023-04-22T13:25:29.253Z,26.42
2023-04-22T13:27:56.399Z,26.44
2023-04-22T13:30:23.250Z,26.45
2023-04-22T13:32:50.419Z,26.47
2023-04-22T13:35:18.432Z,26.49
2023-04-22T13:37:46.417Z,26.47
2023-04-22T13:40:13.382Z,26.49
2023-04-22T13:42:40.710Z,26.50
2023-04-22T13:45:08.269Z,26.53
2023-04-22T13:47:35.530Z,26.59
2023-04-22T13:50:02.509Z,26.57
2023-04-22T13:52:29.634Z,26.60
2023-04-22T13:54:56.533Z,26.60
2023-04-22T13:57:23.749Z,26.63
2023-04-22T13:59:50.805Z,26.63
2023-04-22T14:02:18.119Z,26.64
2023-04-22T14:04:45.163Z,26.67
2023-04-22T14:07:12.798Z,26.70
2023-04-22T14:09:39.912Z,26.72
2023-04-22T14:12:07.757Z,26.75
2023-04-22T14:14:34.857Z,26.77
2023-04-22T14:17:02.238Z,26.79
2023-04-22T14:19:30.578Z,26.78
2023-04-22T14:21:57.968Z,26.75
2023-04-22T14:24:24.971Z,26.70
2023-04-22T14:26:52.836Z,26.71
2023-04-22T14:29:19.680Z,26.70
2023-04-22T14:31:46.843Z,26.76
2023-04-22T14:34:13.610Z,26.73
2023-04-22T14:36:40.762Z,26.74
2023-04-22T14:39:07.687Z,26.73
2023-04-22T14:41:34.979Z,26.73
2023-04-22T14:44:01.857Z,26.74
2023-04-22T14:46:30.521Z,26.74
2023-04-22T14:48:57.401Z,26.74
2023-04-22T14:51:24.590Z,26.76
2023-04-22T14:53:51.658Z,26.75
2023-04-22T14:56:18.877Z,26.75
2023-04-22T14:58:45.828Z,26.77
2023-04-22T15:01:12.940Z,26.80
2023-04-22T15:03:39.961Z,26.79
2023-04-22T15:06:07.226Z,26.75
2023-04-22T15:08:34.021Z,26.79
2023-04-22T15:11:01.165Z,26.73
2023-04-22T15:13:27.944Z,26.79
2023-04-22T15:15:55.050Z,26.81
2023-04-22T15:18:21.879Z,26.80
2023-04-22T15:20:49.095Z,26.81
2023-04-22T15:23:16.060Z,26.80
2023-04-22T15:25:43.185Z,26.80
2023-04-22T15:28:10.057Z,26.75
2023-04-22T15:30:37.228Z,26.75
2023-04-22T15:33:05.016Z,26.77
2023-04-22T15:35:32.178Z,26.79
2023-04-22T15:37:59.102Z,26.76
2023-04-22T15:40:26.259Z,26.76
2023-04-22T15:42:53.089Z,26.74
2023-04-22T15:45:20.372Z,26.72
2023-04-22T15:47:47.251Z,26.70
2023-04-22T15:50:14.423Z,26.69
2023-04-22T15:52:41.282Z,26.64
2023-04-22T15:55:09.423Z,26.63
2023-04-22T15:57:36.384Z,26.60
2023-04-22T16:00:11.840Z,26.60
2023-04-22T16:02:39.808Z,26.58
2023-04-22T16:05:07.311Z,26.56
2023-04-22T16:07:34.142Z,26.55
2023-04-22T16:10:01.464Z,26.53
2023-04-22T16:12:28.418Z,26.50
2023-04-22T16:14:55.600Z,26.45
2023-04-22T16:17:22.568Z,26.43
2023-04-22T16:19:49.696Z,26.43
2023-04-22T16:22:16.489Z,26.40
2023-04-22T16:24:44.384Z,26.38
2023-04-22T16:27:16.390Z,26.33
2023-04-22T16:29:44.185Z,26.29
2023-04-22T16:32:11.462Z,26.27
2023-04-22T16:34:38.846Z,26.25
2023-04-22T16:37:06.061Z,26.22
2023-04-22T16:39:33.421Z,26.20
2023-04-22T16:42:00.283Z,26.17
2023-04-22T16:44:27.408Z,26.14
2023-04-22T16:46:54.193Z,26.11
2023-04-22T16:49:21.319Z,26.08
2023-04-22T16:51:48.509Z,26.04
2023-04-22T16:54:15.610Z,26.00
2023-04-22T16:56:42.399Z,25.98
2023-04-22T16:59:09.534Z,25.94
2023-04-22T17:01:36.381Z,25.91
2023-04-22T17:04:03.662Z,25.87
2023-04-22T17:06:31.280Z,25.85
2023-04-22T17:08:59.905Z,25.82
2023-04-22T17:11:26.810Z,25.77
2023-04-22T17:13:54.021Z,25.74
2023-04-22T17:16:21.125Z,25.68
2023-04-22T17:18:48.388Z,25.66
2023-04-22T17:21:15.224Z,25.61
2023-04-22T17:23:42.334Z,25.58
2023-04-22T17:26:09.165Z,25.52
2023-04-22T17:28:36.229Z,25.49
2023-04-22T17:31:04.098Z,25.45
2023-04-22T17:33:31.355Z,25.39
2023-04-22T17:35:58.219Z,25.37
2023-04-22T17:38:25.377Z,25.32
2023-04-22T17:40:52.148Z,25.27
2023-04-22T17:43:19.262Z,25.21
2023-04-22T17:45:46.038Z,25.17
2023-04-22T17:48:13.148Z,25.11
2023-04-22T17:50:39.926Z,24.98
2023-04-22T17:53:07.063Z,24.90
2023-04-22T17:55:35.355Z,24.88
2023-04-22T17:58:03.147Z,24.84
2023-04-22T18:00:30.501Z,24.74
2023-04-22T18:02:57.871Z,24.68
2023-04-22T18:05:24.836Z,24.61
2023-04-22T18:07:52.590Z,24.53
2023-04-22T18:10:19.450Z,24.49
2023-04-22T18:12:46.663Z,24.44
2023-04-22T18:15:13.451Z,24.41
2023-04-22T18:17:40.584Z,24.30
2023-04-22T18:20:17.584Z,24.24
2023-04-22T18:22:49.426Z,24.15
2023-04-22T18:25:16.578Z,24.08
2023-04-22T18:27:44.113Z,24.00
2023-04-22T18:30:11.193Z,23.93
2023-04-22T18:32:38.510Z,23.86
2023-04-22T18:35:06.070Z,23.84
2023-04-22T18:37:34.584Z,23.75
2023-04-22T18:40:02.113Z,23.68
2023-04-22T18:42:29.244Z,23.65
2023-04-22T18:44:56.040Z,23.60
2023-04-22T18:47:23.338Z,23.59
2023-04-22T18:49:50.157Z,23.53
2023-04-22T18:52:17.552Z,23.47
2023-04-22T18:54:44.430Z,23.37
2023-04-22T18:57:11.587Z,23.31
2023-04-22T18:59:38.587Z,23.27
2023-04-22T19:02:05.780Z,23.21
2023-04-22T19:04:32.847Z,23.17
2023-04-22T19:07:00.232Z,23.13
2023-04-22T19:09:27.059Z,23.06
2023-04-22T19:11:54.141Z,22.96
2023-04-22T19:14:20.931Z,22.91
2023-04-22T19:16:48.026Z,22.82
2023-04-22T19:19:14.843Z,22.74
2023-04-22T19:21:41.939Z,22.67
2023-04-22T19:24:09.770Z,22.66
2023-04-22T19:26:36.886Z,22.54
2023-04-22T19:29:03.644Z,22.51
2023-04-22T19:31:30.950Z,22.45
2023-04-22T19:33:58.015Z,22.44
2023-04-22T19:36:25.678Z,22.37
2023-04-22T19:38:52.422Z,22.28
2023-04-22T19:41:19.473Z,22.21
2023-04-22T19:43:46.273Z,22.15
2023-04-22T19:46:13.411Z,22.10
2023-04-22T19:48:40.768Z,22.10
2023-04-22T19:51:08.001Z,22.01
2023-04-22T19:53:34.909Z,21.92
2023-04-22T19:56:03.007Z,21.90
2023-04-22T19:58:29.934Z,21.83
2023-04-22T20:00:57.478Z,21.75
2023-04-22T20:03:24.792Z,21.73
2023-04-22T20:05:52.079Z,21.68
2023-04-22T20:08:19.654Z,21.55
2023-04-22T20:10:49.247Z,21.57
2023-04-22T20:13:16.618Z,21.51
2023-04-22T20:15:44.490Z,21.45
2023-04-22T20:18:11.481Z,21.43
2023-04-22T20:20:40.144Z,21.31
2023-04-22T20:23:09.815Z,21.26
2023-04-22T20:25:39.674Z,21.21
2023-04-22T20:28:07.044Z,21.19
2023-04-22T20:30:34.425Z,21.16
2023-04-22T20:33:01.441Z,21.05
2023-04-22T20:35:28.914Z,20.98
2023-04-22T20:37:58.033Z,20.96
2023-04-22T20:40:25.527Z,20.91
2023-04-22T20:42:52.282Z,20.85
2023-04-22T20:45:20.374Z,20.79
2023-04-22T20:47:48.376Z,20.80
2023-04-22T20:50:16.153Z,20.73
2023-04-22T20:52:43.396Z,20.66
2023-04-22T20:55:10.461Z,20.64
2023-04-22T20:57:37.712Z,20.62
2023-04-22T21:00:07.202Z,20.49
2023-04-22T21:02:34.135Z,20.46
2023-04-22T21:05:02.407Z,20.39
2023-04-22T21:07:30.820Z,20.35
2023-04-22T21:09:58.209Z,20.27
2023-04-22T21:12:25.541Z,20.20
2023-04-22T21:14:52.983Z,20.22
2023-04-22T21:17:21.442Z,20.13
2023-04-22T21:19:49.830Z,20.14
2023-04-22T21:22:23.495Z,19.99
2023-04-22T21:24:53.924Z,19.96
2023-04-22T21:27:21.689Z,19.91
2023-04-22T21:29:49.489Z,19.84
2023-04-22T21:32:16.743Z,19.89
2023-04-22T21:34:44.635Z,19.82
2023-04-22T21:37:11.908Z,19.73
2023-04-22T21:39:39.926Z,19.68
2023-04-22T21:42:08.660Z,19.61
2023-04-22T21:44:36.764Z,19.62
2023-04-22T21:47:04.074Z,19.63
2023-04-22T21:49:31.300Z,19.53
2023-04-22T21:51:58.357Z,19.48
2023-04-22T21:54:25.463Z,19.45
2023-04-22T21:56:52.276Z,19.38
2023-04-22T21:59:19.463Z,19.30
2023-04-22T22:01:46.396Z,19.34
2023-04-22T22:04:15.940Z,19.24
2023-04-22T22:06:44.304Z,19.24
2023-04-22T22:09:12.163Z,19.16
2023-04-22T22:11:38.932Z,19.08
2023-04-22T22:14:06.049Z,19.03
2023-04-22T22:16:33.482Z,18.95
2023-04-22T22:19:02.757Z,18.91
2023-04-22T22:21:29.769Z,18.81
2023-04-22T22:23:57.829Z,18.75
2023-04-22T22:26:24.816Z,18.74
2023-04-22T22:28:51.933Z,18.65
2023-04-22T22:31:18.894Z,18.56
2023-04-22T22:33:46.138Z,18.57
2023-04-22T22:36:12.955Z,18.52
2023-04-22T22:38:40.020Z,18.46
2023-04-22T22:41:06.808Z,18.42
2023-04-22T22:43:33.874Z,18.38
2023-04-22T22:46:00.752Z,18.33
2023-04-22T22:48:27.851Z,18.32
2023-04-22T22:50:54.619Z,18.34
2023-04-22T22:53:22.191Z,18.27
2023-04-22T22:55:49.011Z,18.23
2023-04-22T22:58:16.211Z,18.13
2023-04-22T23:00:42.971Z,18.10
2023-04-22T23:03:10.179Z,18.02
2023-04-22T23:05:37.116Z,18.07
2023-04-22T23:08:04.225Z,18.08
2023-04-22T23:10:31.507Z,18.11
2023-04-22T23:13:00.096Z,18.10
2023-04-22T23:15:26.897Z,18.07
2023-04-22T23:17:54.104Z,17.98
2023-04-22T23:20:22.325Z,18.01
2023-04-22T23:22:51.179Z,17.94
2023-04-22T23:25:18.898Z,17.94
2023-04-22T23:27:46.797Z,17.92
2023-04-22T23:30:14.109Z,17.92
2023-04-22T23:32:41.313Z,17.88
2023-04-22T23:35:09.108Z,17.84
2023-04-22T23:37:40.593Z,17.80
2023-04-22T23:40:08.868Z,17.72
2023-04-22T23:42:36.650Z,17.72
2023-04-22T23:45:04.406Z,17.73
2023-04-22T23:47:31.984Z,17.64
2023-04-22T23:49:59.194Z,17.67
2023-04-22T23:52:26.869Z,17.65
2023-04-22T23:54:55.136Z,17.57
2023-04-22T23:57:22.548Z,17.53
2023-04-22T23:59:49.586Z,17.50
